Terminal Aerodrome Forecast
Issued by NWS

Home | Current Version | Previous Version | Graphics & Text | Print | Product List | Glossary On
Versions: 1 2 3 4 5 6 7 8 9 10 11 12 13 14
000
FTUS43 KBIS 221727
TAFMOT
TAF
KMOT 221727Z 2218/2318 15017G26KT P6SM OVC015
     FM230100 15011KT P6SM BKN150
     FM230500 18009KT P6SM SCT250
     FM231300 21005KT P6SM BKN130=

USA.gov is the U.S. government's official web portal to all federal, state and local government web resources and services.